Terminal Aerodrome Forecast
Issued by NWS

Home | Current Version | Previous Version | Text Only | Print | Product List | Glossary On
Versions: 1 2 3 4 5 6 7 8 9 10 11 12 13 14 15 16 17 18 19 20 21 22
000
FTUS46 KLOX 140700 AAA
TAFLGB
TAF AMD
KLGB 140705Z 1407/1506 17008KT P6SM SCT010 BKN120
     FM140900 16005KT P6SM BKN006 BKN120
     FM141600 17006KT P6SM VCSH BKN008 BKN120
     FM141900 19009KT P6SM VCSH BKN120
     FM150400 VRB05KT P6SM BKN100=

USA.gov is the U.S. government's official web portal to all federal, state and local government web resources and services.